createdAt,value
2019-02-08T00:00:08.434Z,1006.84
2019-02-08T00:01:12.678Z,1006.81
2019-02-08T00:02:16.909Z,1006.80
2019-02-08T00:03:21.109Z,1006.77
2019-02-08T00:04:25.325Z,1006.78
2019-02-08T00:05:29.545Z,1006.76
2019-02-08T00:06:33.807Z,1006.76
2019-02-08T00:07:37.981Z,1006.79
2019-02-08T00:08:42.200Z,1006.85
2019-02-08T00:09:46.448Z,1006.90
2019-02-08T00:10:50.513Z,1006.91
2019-02-08T00:11:54.790Z,1006.91
2019-02-08T00:12:59.005Z,1006.92
2019-02-08T00:14:03.185Z,1006.94
2019-02-08T00:15:07.415Z,1006.91
2019-02-08T00:16:12.421Z,1006.93
2019-02-08T00:17:16.317Z,1006.95
2019-02-08T00:18:20.485Z,1006.98
2019-02-08T00:19:24.713Z,1006.97
2019-02-08T00:20:28.911Z,1007.03
2019-02-08T00:21:33.135Z,1007.00
2019-02-08T00:22:37.354Z,1007.00
2019-02-08T00:23:41.434Z,1007.03
2019-02-08T00:24:45.689Z,1007.04
2019-02-08T00:25:49.867Z,1007.04
2019-02-08T00:26:54.893Z,1007.04
2019-02-08T00:27:58.794Z,1007.05
2019-02-08T00:29:03.031Z,1007.03
2019-02-08T00:30:07.214Z,1007.04
2019-02-08T00:31:11.253Z,1007.08
2019-02-08T00:32:15.449Z,1007.12
2019-02-08T00:33:19.788Z,1007.12
2019-02-08T00:34:23.952Z,1007.15
2019-02-08T00:35:28.259Z,1007.17
2019-02-08T00:36:32.389Z,1007.18
2019-02-08T00:37:36.612Z,1007.22
2019-02-08T00:38:40.833Z,1007.25
2019-02-08T00:39:45.067Z,1007.27
2019-02-08T00:40:49.254Z,1007.29
2019-02-08T00:41:53.479Z,1007.30
2019-02-08T00:42:57.689Z,1007.34
2019-02-08T00:44:01.890Z,1007.37
2019-02-08T00:45:06.107Z,1007.38
2019-02-08T00:46:10.318Z,1007.40
2019-02-08T00:47:14.431Z,1007.42
2019-02-08T00:48:18.703Z,1007.46
2019-02-08T00:49:22.900Z,1007.48
2019-02-08T00:50:27.028Z,1007.48
2019-02-08T00:51:31.215Z,1007.50
2019-02-08T00:52:35.447Z,1007.52
2019-02-08T00:53:39.679Z,1007.55
2019-02-08T00:54:43.851Z,1007.56
2019-02-08T00:55:48.053Z,1007.57
2019-02-08T00:56:52.288Z,1007.60
2019-02-08T00:57:56.497Z,1007.61
2019-02-08T00:59:00.694Z,1007.63
2019-02-08T01:00:05.007Z,1007.63
2019-02-08T01:01:09.091Z,1007.65
2019-02-08T01:02:13.383Z,1007.64
2019-02-08T01:03:17.625Z,1007.62
2019-02-08T01:04:21.707Z,1007.64
2019-02-08T01:05:25.955Z,1007.65
2019-02-08T01:06:30.252Z,1007.67
2019-02-08T01:07:34.420Z,1007.63
2019-02-08T01:08:38.647Z,1007.65
2019-02-08T01:09:42.832Z,1007.66
2019-02-08T01:10:47.075Z,1007.69
2019-02-08T01:11:51.260Z,1007.67
2019-02-08T01:12:55.426Z,1007.69
2019-02-08T01:13:59.701Z,1007.66
2019-02-08T01:15:03.880Z,1007.66
2019-02-08T01:16:08.076Z,1007.66
2019-02-08T01:17:12.259Z,1007.68
2019-02-08T01:18:16.522Z,1007.68
2019-02-08T01:19:20.733Z,1007.68
2019-02-08T01:20:24.847Z,1007.73
2019-02-08T01:21:29.120Z,1007.72
2019-02-08T01:22:33.305Z,1007.74
2019-02-08T01:23:41.230Z,1007.77
2019-02-08T01:24:41.711Z,1007.76
2019-02-08T01:25:45.908Z,1007.77
2019-02-08T01:26:50.060Z,1007.76
2019-02-08T01:27:54.257Z,1007.75
2019-02-08T01:28:58.468Z,1007.74
2019-02-08T01:30:02.692Z,1007.72
2019-02-08T01:31:06.899Z,1007.71
2019-02-08T01:32:11.100Z,1007.73
2019-02-08T01:33:15.307Z,1007.77
2019-02-08T01:34:19.568Z,1007.71
2019-02-08T01:35:23.740Z,1007.74
2019-02-08T01:36:27.907Z,1007.73
2019-02-08T01:37:32.090Z,1007.70
2019-02-08T01:38:36.188Z,1007.76
2019-02-08T01:39:40.441Z,1007.74
2019-02-08T01:40:44.624Z,1007.76
2019-02-08T01:41:48.844Z,1007.76
2019-02-08T01:42:53.070Z,1007.76
2019-02-08T01:43:57.286Z,1007.75
2019-02-08T01:45:01.494Z,1007.76
2019-02-08T01:46:05.697Z,1007.79
2019-02-08T01:47:09.882Z,1007.79
2019-02-08T01:48:14.001Z,1007.79
2019-02-08T01:49:18.407Z,1007.80
2019-02-08T01:50:22.524Z,1007.79
2019-02-08T01:51:26.750Z,1007.85
2019-02-08T01:52:30.944Z,1007.81
2019-02-08T01:53:35.175Z,1007.82
2019-02-08T01:54:39.412Z,1007.83
2019-02-08T01:55:43.642Z,1007.79
2019-02-08T01:56:47.858Z,1007.82
2019-02-08T01:57:52.102Z,1007.80
2019-02-08T01:58:56.305Z,1007.82
2019-02-08T02:00:00.554Z,1007.84
2019-02-08T02:01:04.736Z,1007.85
2019-02-08T02:02:08.911Z,1007.86
2019-02-08T02:03:13.114Z,1007.88
2019-02-08T02:04:17.340Z,1007.87
2019-02-08T02:05:21.543Z,1007.85
2019-02-08T02:06:25.764Z,1007.86
2019-02-08T02:07:29.934Z,1007.86
2019-02-08T02:08:34.053Z,1007.88
2019-02-08T02:09:38.355Z,1007.89
2019-02-08T02:10:42.537Z,1007.93
2019-02-08T02:11:46.765Z,1007.94
2019-02-08T02:12:50.981Z,1007.91
2019-02-08T02:13:55.310Z,1007.93
2019-02-08T02:14:59.503Z,1007.95
2019-02-08T02:16:04.217Z,1007.93
2019-02-08T02:17:07.880Z,1007.92
2019-02-08T02:18:12.131Z,1007.90
2019-02-08T02:19:16.325Z,1007.89
2019-02-08T02:20:20.539Z,1007.89
2019-02-08T02:21:24.717Z,1007.90
2019-02-08T02:22:28.898Z,1007.91
2019-02-08T02:23:33.106Z,1007.93
2019-02-08T02:24:37.320Z,1007.92
2019-02-08T02:25:41.509Z,1007.92
2019-02-08T02:26:45.731Z,1007.94
2019-02-08T02:27:49.980Z,1007.97
2019-02-08T02:28:54.090Z,1008.00
2019-02-08T02:29:58.337Z,1008.02
2019-02-08T02:31:02.600Z,1008.00
2019-02-08T02:32:06.848Z,1008.03
2019-02-08T02:33:10.970Z,1008.03
2019-02-08T02:34:15.274Z,1008.01
2019-02-08T02:35:19.521Z,1008.06
2019-02-08T02:36:23.795Z,1008.07
2019-02-08T02:37:27.941Z,1008.06
2019-02-08T02:38:32.187Z,1008.08
2019-02-08T02:39:36.393Z,1008.09
2019-02-08T02:40:40.676Z,1008.09
2019-02-08T02:41:44.901Z,1008.10
2019-02-08T02:42:49.066Z,1008.15
2019-02-08T02:43:53.257Z,1008.14
2019-02-08T02:44:57.441Z,1008.13
2019-02-08T02:46:01.743Z,1008.14
2019-02-08T02:47:05.898Z,1008.18
2019-02-08T02:48:10.129Z,1008.15
2019-02-08T02:49:14.312Z,1008.14
2019-02-08T02:50:18.528Z,1008.17
2019-02-08T02:51:22.744Z,1008.19
2019-02-08T02:52:26.974Z,1008.20
2019-02-08T02:53:31.192Z,1008.21
2019-02-08T02:54:35.393Z,1008.20
2019-02-08T02:55:39.539Z,1008.22
2019-02-08T02:56:43.805Z,1008.21
2019-02-08T02:57:47.869Z,1008.18
2019-02-08T02:58:52.139Z,1008.19
2019-02-08T02:59:56.346Z,1008.18
2019-02-08T03:01:00.507Z,1008.21
2019-02-08T03:02:04.748Z,1008.19
2019-02-08T03:03:08.970Z,1008.20
2019-02-08T03:04:13.082Z,1008.25
2019-02-08T03:05:17.325Z,1008.20
2019-02-08T03:06:21.546Z,1008.21
2019-02-08T03:07:25.763Z,1008.17
2019-02-08T03:08:29.980Z,1008.18
2019-02-08T03:09:34.212Z,1008.13
2019-02-08T03:10:38.448Z,1008.17
2019-02-08T03:11:42.674Z,1008.18
2019-02-08T03:12:46.875Z,1008.20
2019-02-08T03:13:51.081Z,1008.17
2019-02-08T03:14:55.175Z,1008.17
2019-02-08T03:15:59.452Z,1008.18
2019-02-08T03:17:03.665Z,1008.16
2019-02-08T03:18:07.861Z,1008.18
2019-02-08T03:19:12.094Z,1008.16
2019-02-08T03:20:16.306Z,1008.17
2019-02-08T03:21:20.546Z,1008.21
2019-02-08T03:22:24.764Z,1008.21
2019-02-08T03:23:28.966Z,1008.23
2019-02-08T03:24:33.180Z,1008.20
2019-02-08T03:25:37.373Z,1008.21
2019-02-08T03:26:41.600Z,1008.21
2019-02-08T03:27:45.837Z,1008.21
2019-02-08T03:28:50.032Z,1008.20
2019-02-08T03:29:54.281Z,1008.21
2019-02-08T03:30:58.487Z,1008.25
2019-02-08T03:32:02.709Z,1008.28
2019-02-08T03:33:06.958Z,1008.29
2019-02-08T03:34:11.131Z,1008.27
2019-02-08T03:35:15.317Z,1008.28
2019-02-08T03:36:19.529Z,1008.31
2019-02-08T03:37:23.729Z,1008.32
2019-02-08T03:38:27.914Z,1008.30
2019-02-08T03:39:32.176Z,1008.31
2019-02-08T03:40:36.365Z,1008.31
2019-02-08T03:41:40.561Z,1008.33
2019-02-08T03:42:44.756Z,1008.36
2019-02-08T03:43:48.966Z,1008.36
2019-02-08T03:44:53.088Z,1008.35
2019-02-08T03:45:57.390Z,1008.36
2019-02-08T03:47:01.635Z,1008.34
2019-02-08T03:48:05.789Z,1008.33
2019-02-08T03:49:09.946Z,1008.32
2019-02-08T03:50:14.167Z,1008.33
2019-02-08T03:51:18.359Z,1008.35
2019-02-08T03:52:22.556Z,1008.28
2019-02-08T03:53:26.737Z,1008.32
2019-02-08T03:54:30.967Z,1008.39
2019-02-08T03:55:35.196Z,1008.36
2019-02-08T03:56:39.361Z,1008.36
2019-02-08T03:57:43.600Z,1008.37
2019-02-08T03:58:47.731Z,1008.40
2019-02-08T03:59:52.027Z,1008.42
2019-02-08T04:00:56.223Z,1008.45
2019-02-08T04:02:00.462Z,1008.45
2019-02-08T04:03:04.671Z,1008.48
2019-02-08T04:04:08.835Z,1008.48
2019-02-08T04:05:13.029Z,1008.50
2019-02-08T04:06:17.210Z,1008.51
2019-02-08T04:07:21.434Z,1008.51
2019-02-08T04:08:25.671Z,1008.55
2019-02-08T04:09:29.809Z,1008.55
2019-02-08T04:10:34.916Z,1008.54
2019-02-08T04:11:38.766Z,1008.52
2019-02-08T04:12:42.997Z,1008.53
2019-02-08T04:13:47.056Z,1008.55
2019-02-08T04:14:51.356Z,1008.56
2019-02-08T04:15:55.564Z,1008.57
2019-02-08T04:16:59.661Z,1008.59
2019-02-08T04:18:03.935Z,1008.56
2019-02-08T04:19:08.110Z,1008.56
2019-02-08T04:20:12.327Z,1008.57
2019-02-08T04:21:16.537Z,1008.57
2019-02-08T04:22:20.762Z,1008.56
2019-02-08T04:23:24.980Z,1008.59
2019-02-08T04:24:30.169Z,1008.62
2019-02-08T04:25:33.307Z,1008.60
2019-02-08T04:26:37.559Z,1008.60
2019-02-08T04:27:41.679Z,1008.66
2019-02-08T04:28:45.847Z,1008.63
2019-02-08T04:29:50.115Z,1008.64
2019-02-08T04:30:54.226Z,1008.63
2019-02-08T04:31:58.471Z,1008.67
2019-02-08T04:33:02.738Z,1008.67
2019-02-08T04:34:06.920Z,1008.69
2019-02-08T04:35:11.146Z,1008.70
2019-02-08T04:36:15.360Z,1008.71
2019-02-08T04:37:19.453Z,1008.72
2019-02-08T04:38:23.743Z,1008.72
2019-02-08T04:39:27.946Z,1008.72
2019-02-08T04:40:32.177Z,1008.77
2019-02-08T04:41:36.315Z,1008.75
2019-02-08T04:42:40.626Z,1008.76
2019-02-08T04:43:44.718Z,1008.76
2019-02-08T04:44:48.985Z,1008.77
2019-02-08T04:45:53.210Z,1008.78
2019-02-08T04:46:57.412Z,1008.79
2019-02-08T04:48:01.623Z,1008.78
2019-02-08T04:49:05.871Z,1008.79
2019-02-08T04:50:10.089Z,1008.78
2019-02-08T04:51:14.273Z,1008.78
2019-02-08T04:52:18.492Z,1008.81
2019-02-08T04:53:22.664Z,1008.81
2019-02-08T04:54:26.881Z,1008.86
2019-02-08T04:55:31.055Z,1008.84
2019-02-08T04:56:35.251Z,1008.86
2019-02-08T04:57:39.626Z,1008.86
2019-02-08T04:58:43.703Z,1008.87
2019-02-08T04:59:47.980Z,1008.83
2019-02-08T05:00:52.171Z,1008.80
2019-02-08T05:01:56.362Z,1008.83
2019-02-08T05:03:00.616Z,1008.82
2019-02-08T05:04:04.826Z,1008.83
2019-02-08T05:05:09.059Z,1008.81
2019-02-08T05:06:13.253Z,1008.87
2019-02-08T05:07:17.441Z,1008.85
2019-02-08T05:08:21.673Z,1008.81
2019-02-08T05:09:25.941Z,1008.82
2019-02-08T05:10:30.170Z,1008.83
2019-02-08T05:11:34.369Z,1008.84
2019-02-08T05:12:38.590Z,1008.82
2019-02-08T05:13:42.748Z,1008.83
2019-02-08T05:14:47.001Z,1008.80
2019-02-08T05:15:51.181Z,1008.83
2019-02-08T05:16:55.263Z,1008.81
2019-02-08T05:17:59.461Z,1008.81
2019-02-08T05:19:03.877Z,1008.83
2019-02-08T05:20:07.993Z,1008.88
2019-02-08T05:21:12.173Z,1008.84
2019-02-08T05:22:16.263Z,1008.86
2019-02-08T05:23:20.390Z,1008.89
2019-02-08T05:24:24.678Z,1008.90
2019-02-08T05:25:28.817Z,1008.88
2019-02-08T05:26:33.039Z,1008.87
2019-02-08T05:27:37.215Z,1008.87
2019-02-08T05:28:41.447Z,1008.86
2019-02-08T05:29:45.678Z,1008.86
2019-02-08T05:30:49.794Z,1008.89
2019-02-08T05:31:54.033Z,1008.88
2019-02-08T05:32:58.208Z,1008.92
2019-02-08T05:34:02.457Z,1008.91
2019-02-08T05:35:06.600Z,1008.93
2019-02-08T05:36:10.810Z,1008.93
2019-02-08T05:37:15.034Z,1008.92
2019-02-08T05:38:19.288Z,1008.91
2019-02-08T05:39:23.613Z,1008.91
2019-02-08T05:40:27.788Z,1008.92
2019-02-08T05:41:31.874Z,1008.93
2019-02-08T05:42:36.147Z,1008.92
2019-02-08T05:43:40.267Z,1008.94
2019-02-08T05:44:44.676Z,1008.94
2019-02-08T05:45:48.818Z,1008.91
2019-02-08T05:46:53.040Z,1008.93
2019-02-08T05:47:57.286Z,1008.96
2019-02-08T05:49:01.495Z,1008.94
2019-02-08T05:50:05.725Z,1008.99
2019-02-08T05:51:09.891Z,1008.98
2019-02-08T05:52:14.080Z,1008.97
2019-02-08T05:53:18.294Z,1009.01
2019-02-08T05:54:22.501Z,1008.98
2019-02-08T05:55:26.724Z,1009.00
2019-02-08T05:56:30.944Z,1009.01
2019-02-08T05:57:35.182Z,1009.00
2019-02-08T05:58:39.363Z,1009.02
2019-02-08T05:59:43.565Z,1009.05
2019-02-08T06:00:47.672Z,1009.09
2019-02-08T06:01:51.823Z,1009.10
2019-02-08T06:02:56.235Z,1009.13
2019-02-08T06:04:00.253Z,1009.13
2019-02-08T06:05:04.529Z,1009.18
2019-02-08T06:06:08.716Z,1009.19
2019-02-08T06:07:12.914Z,1009.18
2019-02-08T06:08:17.124Z,1009.19
2019-02-08T06:09:21.250Z,1009.19
2019-02-08T06:10:25.527Z,1009.22
2019-02-08T06:11:29.761Z,1009.19
2019-02-08T06:12:33.955Z,1009.20
2019-02-08T06:13:38.214Z,1009.20
2019-02-08T06:14:42.397Z,1009.20
2019-02-08T06:15:46.704Z,1009.18
2019-02-08T06:16:50.845Z,1009.19
2019-02-08T06:17:55.075Z,1009.21
2019-02-08T06:18:59.292Z,1009.20
2019-02-08T06:20:03.488Z,1009.22
2019-02-08T06:21:07.730Z,1009.20
2019-02-08T06:22:11.936Z,1009.24
2019-02-08T06:23:16.130Z,1009.26
2019-02-08T06:24:20.353Z,1009.28
2019-02-08T06:25:24.569Z,1009.28
2019-02-08T06:26:28.701Z,1009.25
2019-02-08T06:27:32.942Z,1009.25
2019-02-08T06:28:37.172Z,1009.27
2019-02-08T06:29:41.289Z,1009.27
2019-02-08T06:30:45.551Z,1009.27
2019-02-08T06:31:49.763Z,1009.29
2019-02-08T06:32:53.949Z,1009.25
2019-02-08T06:33:58.129Z,1009.26
2019-02-08T06:35:02.343Z,1009.25
2019-02-08T06:36:06.534Z,1009.27
2019-02-08T06:37:10.754Z,1009.30
2019-02-08T06:38:14.991Z,1009.26
2019-02-08T06:39:19.179Z,1009.28
2019-02-08T06:40:23.375Z,1009.24
2019-02-08T06:41:27.554Z,1009.26
2019-02-08T06:42:31.792Z,1009.28
2019-02-08T06:43:35.991Z,1009.27
2019-02-08T06:44:40.183Z,1009.26
2019-02-08T06:45:44.406Z,1009.28
2019-02-08T06:46:48.657Z,1009.33
2019-02-08T06:47:52.896Z,1009.37
2019-02-08T06:48:57.093Z,1009.38
2019-02-08T06:50:01.222Z,1009.42
2019-02-08T06:51:05.457Z,1009.42
2019-02-08T06:52:09.689Z,1009.42
2019-02-08T06:53:13.776Z,1009.40
2019-02-08T06:54:18.074Z,1009.39
2019-02-08T06:55:22.246Z,1009.40
2019-02-08T06:56:26.463Z,1009.42
2019-02-08T06:57:30.700Z,1009.45
2019-02-08T06:58:34.914Z,1009.41
2019-02-08T06:59:39.102Z,1009.41
2019-02-08T07:00:43.357Z,1009.41
2019-02-08T07:01:47.550Z,1009.40
2019-02-08T07:02:51.815Z,1009.42
2019-02-08T07:03:55.955Z,1009.43
2019-02-08T07:05:00.047Z,1009.41
2019-02-08T07:06:04.340Z,1009.45
2019-02-08T07:07:08.566Z,1009.43
2019-02-08T07:08:12.771Z,1009.42
2019-02-08T07:09:17.007Z,1009.45
2019-02-08T07:10:21.199Z,1009.44
2019-02-08T07:11:25.404Z,1009.46
2019-02-08T07:12:29.616Z,1009.49
2019-02-08T07:13:33.825Z,1009.50
2019-02-08T07:14:38.039Z,1009.51
2019-02-08T07:15:42.149Z,1009.52
2019-02-08T07:16:46.435Z,1009.50
2019-02-08T07:17:50.637Z,1009.48
2019-02-08T07:18:54.850Z,1009.50
2019-02-08T07:19:58.964Z,1009.51
2019-02-08T07:21:03.226Z,1009.50
2019-02-08T07:22:07.423Z,1009.51
2019-02-08T07:23:11.640Z,1009.52
2019-02-08T07:24:15.800Z,1009.53
2019-02-08T07:25:20.027Z,1009.56
2019-02-08T07:26:24.128Z,1009.53
2019-02-08T07:27:29.456Z,1009.55
2019-02-08T07:28:32.539Z,1009.55
2019-02-08T07:29:36.628Z,1009.53
2019-02-08T07:30:40.927Z,1009.57
2019-02-08T07:31:45.121Z,1009.52
2019-02-08T07:32:49.313Z,1009.53
2019-02-08T07:33:53.522Z,1009.53
2019-02-08T07:34:57.734Z,1009.52
2019-02-08T07:36:01.971Z,1009.55
2019-02-08T07:37:06.253Z,1009.57
2019-02-08T07:38:10.436Z,1009.59
2019-02-08T07:39:14.654Z,1009.59
2019-02-08T07:40:18.858Z,1009.58
2019-02-08T07:41:23.074Z,1009.61
2019-02-08T07:42:27.171Z,1009.65
2019-02-08T07:43:31.435Z,1009.68
2019-02-08T07:44:35.592Z,1009.68
2019-02-08T07:45:39.855Z,1009.69
2019-02-08T07:46:44.081Z,1009.69
2019-02-08T07:47:48.310Z,1009.69
2019-02-08T07:48:52.517Z,1009.67
2019-02-08T07:49:56.754Z,1009.69
2019-02-08T07:51:00.924Z,1009.69
2019-02-08T07:52:05.147Z,1009.72
2019-02-08T07:53:09.377Z,1009.75
2019-02-08T07:54:13.650Z,1009.73
2019-02-08T07:55:17.838Z,1009.73
2019-02-08T07:56:22.052Z,1009.74
2019-02-08T07:57:26.293Z,1009.71
2019-02-08T07:58:30.495Z,1009.73
2019-02-08T07:59:34.690Z,1009.72
2019-02-08T08:00:38.808Z,1009.73
2019-02-08T08:01:42.956Z,1009.77
2019-02-08T08:02:47.211Z,1009.74
2019-02-08T08:03:51.430Z,1009.74
2019-02-08T08:04:55.576Z,1009.73
2019-02-08T08:05:59.857Z,1009.76
2019-02-08T08:07:04.024Z,1009.77
2019-02-08T08:08:08.212Z,1009.74
2019-02-08T08:09:12.362Z,1009.73
2019-02-08T08:10:16.654Z,1009.73
2019-02-08T08:11:20.856Z,1009.75
2019-02-08T08:12:25.060Z,1009.75
2019-02-08T08:13:29.276Z,1009.74
2019-02-08T08:14:33.390Z,1009.75
2019-02-08T08:15:37.663Z,1009.75
2019-02-08T08:16:41.886Z,1009.74
2019-02-08T08:17:46.103Z,1009.67
2019-02-08T08:18:50.300Z,1009.67
2019-02-08T08:19:54.519Z,1009.63
2019-02-08T08:20:58.647Z,1009.64
2019-02-08T08:22:02.865Z,1009.61
2019-02-08T08:23:07.089Z,1009.60
2019-02-08T08:24:11.205Z,1009.58
2019-02-08T08:25:15.500Z,1009.56
2019-02-08T08:26:19.599Z,1009.56
2019-02-08T08:27:23.872Z,1009.55
2019-02-08T08:28:28.102Z,1009.53
2019-02-08T08:29:32.319Z,1009.58
2019-02-08T08:30:36.583Z,1009.54
2019-02-08T08:31:40.773Z,1009.59
2019-02-08T08:32:44.981Z,1009.58
2019-02-08T08:33:49.191Z,1009.59
2019-02-08T08:34:53.417Z,1009.63
2019-02-08T08:35:57.654Z,1009.69
2019-02-08T08:37:01.888Z,1009.73
2019-02-08T08:38:06.116Z,1009.73
2019-02-08T08:39:10.308Z,1009.77
2019-02-08T08:40:14.551Z,1009.75
2019-02-08T08:41:18.796Z,1009.72
2019-02-08T08:42:22.981Z,1009.75
2019-02-08T08:43:27.172Z,1009.72
2019-02-08T08:44:31.662Z,1009.71
2019-02-08T08:45:35.765Z,1009.69
2019-02-08T08:46:39.909Z,1009.70
2019-02-08T08:47:44.169Z,1009.71
2019-02-08T08:48:48.379Z,1009.72
2019-02-08T08:49:52.627Z,1009.72
2019-02-08T08:50:56.858Z,1009.70
2019-02-08T08:52:01.037Z,1009.67
2019-02-08T08:53:05.259Z,1009.65
2019-02-08T08:54:09.362Z,1009.66
2019-02-08T08:55:13.635Z,1009.70
2019-02-08T08:56:17.864Z,1009.66
2019-02-08T08:57:22.099Z,1009.65
2019-02-08T08:58:26.209Z,1009.64
2019-02-08T08:59:30.485Z,1009.64
2019-02-08T09:00:34.718Z,1009.64
2019-02-08T09:01:38.859Z,1009.66
2019-02-08T09:02:43.006Z,1009.63
2019-02-08T09:03:47.170Z,1009.61
2019-02-08T09:04:51.351Z,1009.60
2019-02-08T09:05:55.644Z,1009.64
2019-02-08T09:06:59.870Z,1009.66
2019-02-08T09:08:03.981Z,1009.64
2019-02-08T09:09:08.254Z,1009.66
2019-02-08T09:10:13.196Z,1009.66
2019-02-08T09:11:16.673Z,1009.69
2019-02-08T09:12:20.773Z,1009.70
2019-02-08T09:13:25.077Z,1009.72
2019-02-08T09:14:29.205Z,1009.72
2019-02-08T09:15:33.512Z,1009.75
2019-02-08T09:16:37.735Z,1009.73
2019-02-08T09:17:41.839Z,1009.73
2019-02-08T09:18:46.018Z,1009.72
2019-02-08T09:19:50.278Z,1009.69
2019-02-08T09:20:54.422Z,1009.65
2019-02-08T09:21:58.707Z,1009.63
2019-02-08T09:23:02.930Z,1009.63
2019-02-08T09:24:07.166Z,1009.65
2019-02-08T09:25:11.421Z,1009.63
2019-02-08T09:26:15.603Z,1009.66
2019-02-08T09:27:19.809Z,1009.63
2019-02-08T09:28:24.065Z,1009.63
2019-02-08T09:29:28.299Z,1009.67
2019-02-08T09:30:32.636Z,1009.66
2019-02-08T09:31:36.852Z,1009.64
2019-02-08T09:32:41.075Z,1009.70
2019-02-08T09:33:45.285Z,1009.70
2019-02-08T09:34:49.509Z,1009.69
2019-02-08T09:35:53.750Z,1009.68
2019-02-08T09:36:57.897Z,1009.70
2019-02-08T09:38:02.095Z,1009.68
2019-02-08T09:39:06.356Z,1009.70
2019-02-08T09:40:11.641Z,1009.71
2019-02-08T09:41:14.672Z,1009.67
2019-02-08T09:42:18.970Z,1009.68
2019-02-08T09:43:23.174Z,1009.66
2019-02-08T09:44:28.423Z,1009.67
2019-02-08T09:45:31.519Z,1009.68
2019-02-08T09:46:35.795Z,1009.70
2019-02-08T09:47:40.037Z,1009.65
2019-02-08T09:48:44.254Z,1009.65
2019-02-08T09:49:48.462Z,1009.65
2019-02-08T09:50:52.669Z,1009.66
2019-02-08T09:51:56.891Z,1009.67
2019-02-08T09:53:01.035Z,1009.68
2019-02-08T09:54:05.198Z,1009.71
2019-02-08T09:55:09.524Z,1009.69
2019-02-08T09:56:13.740Z,1009.69
2019-02-08T09:57:17.952Z,1009.65
2019-02-08T09:58:22.238Z,1009.64
2019-02-08T09:59:26.341Z,1009.64
2019-02-08T10:00:30.625Z,1009.63
2019-02-08T10:01:34.833Z,1009.64
2019-02-08T10:02:39.111Z,1009.64
2019-02-08T10:03:43.363Z,1009.68
2019-02-08T10:04:47.604Z,1009.71
2019-02-08T10:05:51.840Z,1009.70
2019-02-08T10:06:56.158Z,1009.69
2019-02-08T10:08:00.353Z,1009.66
2019-02-08T10:09:04.463Z,1009.71
2019-02-08T10:10:08.771Z,1009.68
2019-02-08T10:11:12.927Z,1009.69
2019-02-08T10:12:17.199Z,1009.70
2019-02-08T10:13:21.471Z,1009.69
2019-02-08T10:14:25.619Z,1009.72
2019-02-08T10:15:30.033Z,1009.75
2019-02-08T10:16:34.245Z,1009.73
2019-02-08T10:17:38.463Z,1009.72
2019-02-08T10:18:42.694Z,1009.76
2019-02-08T10:19:46.887Z,1009.75
2019-02-08T10:20:51.013Z,1009.73
2019-02-08T10:21:55.290Z,1009.75
2019-02-08T10:22:59.541Z,1009.74
2019-02-08T10:24:03.699Z,1009.79
2019-02-08T10:25:07.973Z,1009.76
2019-02-08T10:26:12.182Z,1009.76
2019-02-08T10:27:16.444Z,1009.73
2019-02-08T10:28:20.692Z,1009.75
2019-02-08T10:29:24.847Z,1009.77
2019-02-08T10:30:29.019Z,1009.73
2019-02-08T10:31:33.309Z,1009.73
2019-02-08T10:32:37.525Z,1009.74
2019-02-08T10:33:41.783Z,1009.72
2019-02-08T10:34:45.994Z,1009.73
2019-02-08T10:35:50.230Z,1009.67
2019-02-08T10:36:54.355Z,1009.63
2019-02-08T10:37:58.638Z,1009.65
2019-02-08T10:39:02.874Z,1009.65
2019-02-08T10:40:07.085Z,1009.62
2019-02-08T10:41:11.250Z,1009.63
2019-02-08T10:42:15.543Z,1009.61
2019-02-08T10:43:19.658Z,1009.58
2019-02-08T10:44:23.886Z,1009.54
2019-02-08T10:45:28.172Z,1009.52
2019-02-08T10:46:32.287Z,1009.52
2019-02-08T10:47:36.555Z,1009.50
2019-02-08T10:48:40.780Z,1009.48
2019-02-08T10:49:44.941Z,1009.49
2019-02-08T10:50:49.112Z,1009.47
2019-02-08T10:51:53.294Z,1009.43
2019-02-08T10:52:57.584Z,1009.44
2019-02-08T10:54:01.750Z,1009.43
2019-02-08T10:55:06.074Z,1009.46
2019-02-08T10:56:14.998Z,1009.45
2019-02-08T10:57:14.367Z,1009.42
2019-02-08T10:58:18.555Z,1009.44
2019-02-08T10:59:22.755Z,1009.40
2019-02-08T11:00:30.038Z,1009.42
2019-02-08T11:01:33.318Z,1009.40
2019-02-08T11:02:37.457Z,1009.39
2019-02-08T11:03:41.743Z,1009.42
2019-02-08T11:04:45.878Z,1009.40
2019-02-08T11:05:50.158Z,1009.41
2019-02-08T11:06:54.385Z,1009.40
2019-02-08T11:07:58.610Z,1009.35
2019-02-08T11:09:02.859Z,1009.37
2019-02-08T11:10:07.086Z,1009.33
2019-02-08T11:11:11.302Z,1009.24
2019-02-08T11:12:15.415Z,1009.25
2019-02-08T11:13:20.592Z,1009.22
2019-02-08T11:14:24.389Z,1009.21
2019-02-08T11:15:28.604Z,1009.16
2019-02-08T11:16:32.851Z,1009.13
2019-02-08T11:17:37.116Z,1009.19
2019-02-08T11:18:41.361Z,1009.20
2019-02-08T11:19:45.652Z,1009.19
2019-02-08T11:20:55.757Z,1009.14
2019-02-08T11:21:58.531Z,1009.17
2019-02-08T11:23:02.775Z,1009.12
2019-02-08T11:24:07.003Z,1009.13
2019-02-08T11:25:11.170Z,1009.14
2019-02-08T11:26:22.195Z,1009.19
2019-02-08T11:27:19.542Z,1009.17
2019-02-08T11:28:23.834Z,1009.16
2019-02-08T11:29:28.036Z,1009.17
2019-02-08T11:30:32.178Z,1009.18
2019-02-08T11:31:36.526Z,1009.15
2019-02-08T11:32:43.149Z,1009.15
2019-02-08T11:33:44.945Z,1009.18
2019-02-08T11:34:49.090Z,1009.13
2019-02-08T11:35:53.379Z,1009.17
2019-02-08T11:36:57.602Z,1009.18
2019-02-08T11:38:01.744Z,1009.17
2019-02-08T11:39:06.049Z,1009.18
2019-02-08T11:40:10.156Z,1009.16
2019-02-08T11:41:14.458Z,1009.18
2019-02-08T11:42:18.590Z,1009.14
2019-02-08T11:43:22.872Z,1009.19
2019-02-08T11:44:27.006Z,1009.19
2019-02-08T11:45:31.235Z,1009.17
2019-02-08T11:46:35.525Z,1009.17
2019-02-08T11:47:39.742Z,1009.17
2019-02-08T11:48:43.904Z,1009.22
2019-02-08T11:49:48.185Z,1009.16
2019-02-08T11:50:52.367Z,1009.12
2019-02-08T11:51:56.527Z,1009.15
2019-02-08T11:53:00.814Z,1009.14
2019-02-08T11:54:04.934Z,1009.14
2019-02-08T11:55:09.144Z,1009.14
2019-02-08T11:56:13.466Z,1009.13
2019-02-08T11:57:17.708Z,1009.17
2019-02-08T11:58:21.963Z,1009.14
2019-02-08T11:59:26.113Z,1009.17
2019-02-08T12:00:30.255Z,1009.17
2019-02-08T12:01:34.467Z,1009.16
2019-02-08T12:02:40.518Z,1009.16
2019-02-08T12:03:42.959Z,1009.19
2019-02-08T12:04:47.077Z,1009.21
2019-02-08T12:05:51.375Z,1009.19
2019-02-08T12:06:55.518Z,1009.18
2019-02-08T12:07:59.797Z,1009.15
2019-02-08T12:09:04.041Z,1009.18
2019-02-08T12:10:08.293Z,1009.13
2019-02-08T12:11:12.554Z,1009.18
2019-02-08T12:12:16.833Z,1009.17
2019-02-08T12:13:20.927Z,1009.18
2019-02-08T12:14:25.127Z,1009.17
2019-02-08T12:15:29.424Z,1009.17
2019-02-08T12:16:33.571Z,1009.15
2019-02-08T12:17:37.815Z,1009.13
2019-02-08T12:18:42.046Z,1009.06
2019-02-08T12:19:46.160Z,1008.98
2019-02-08T12:20:50.455Z,1008.94
2019-02-08T12:21:56.105Z,1008.94
2019-02-08T12:22:58.795Z,1008.90
2019-02-08T12:24:03.110Z,1008.92
2019-02-08T12:25:07.316Z,1008.88
2019-02-08T12:26:11.452Z,1008.89
2019-02-08T12:27:15.866Z,1008.90
2019-02-08T12:28:19.943Z,1008.88
2019-02-08T12:29:24.123Z,1008.89
2019-02-08T12:30:28.412Z,1008.82
2019-02-08T12:31:32.470Z,1008.81
2019-02-08T12:32:36.693Z,1008.81
2019-02-08T12:33:40.884Z,1008.79
2019-02-08T12:34:45.162Z,1008.83
2019-02-08T12:35:49.318Z,1008.81
2019-02-08T12:36:53.585Z,1008.82
2019-02-08T12:37:57.802Z,1008.79
2019-02-08T12:39:02.019Z,1008.75
2019-02-08T12:40:06.260Z,1008.82
2019-02-08T12:41:10.481Z,1008.81
2019-02-08T12:42:14.749Z,1008.83
2019-02-08T12:43:18.976Z,1008.80
2019-02-08T12:44:23.088Z,1008.78
2019-02-08T12:45:27.302Z,1008.79
2019-02-08T12:46:31.486Z,1008.79
2019-02-08T12:47:35.778Z,1008.79
2019-02-08T12:48:39.981Z,1008.80
2019-02-08T12:49:44.125Z,1008.83
2019-02-08T12:50:48.416Z,1008.80
2019-02-08T12:51:52.623Z,1008.76
2019-02-08T12:52:56.887Z,1008.78
2019-02-08T12:54:01.115Z,1008.80
2019-02-08T12:55:05.334Z,1008.78
2019-02-08T12:56:09.448Z,1008.75